Time;durP1;ratioP1;P1;durP2;ratioP2;P2;SDS_P1;SDS_P2;PMS_P1;PMS_P2;Temp;Humidity;BMP_temperature;BMP_pressure;BME280_temperature;BME280_humidity;BME280_pressure;Samples;Min_cycle;Max_cycle;Signal;HPM_P1;HPM_P2
2022/08/14 00:01:55;;;;;;;9.20;3.72;;;;;;;;;;5096531;28;20406;-64
2022/08/14 00:04:24;;;;;;;7.75;3.85;;;;;;;;;;5081856;28;20052;-64
2022/08/14 00:06:51;;;;;;;7.22;3.70;;;;;;;;;;5104496;28;20750;-63
2022/08/14 00:09:18;;;;;;;5.93;3.47;;;;;;;;;;5098431;28;20052;-63
2022/08/14 00:11:45;;;;;;;7.22;3.80;;;;;;;;;;5099306;28;20482;-63
2022/08/14 00:14:13;;;;;;;7.13;3.70;;;;;;;;;;5107008;28;20100;-63
2022/08/14 00:16:40;;;;;;;9.95;3.72;;;;;;;;;;5101308;28;20065;-63
2022/08/14 00:19:07;;;;;;;7.90;4.03;;;;;;;;;;5103119;28;20470;-64
2022/08/14 00:21:37;;;;;;;5.72;3.80;;;;;;;;;;5085744;28;20047;-64
2022/08/14 00:24:04;;;;;;;9.52;4.40;;;;;;;;;;5101408;28;20061;-63
2022/08/14 00:26:31;;;;;;;6.53;3.97;;;;;;;;;;5102226;28;20052;-64
2022/08/14 00:28:59;;;;;;;6.43;4.13;;;;;;;;;;5101761;28;20055;-63
2022/08/14 00:31:26;;;;;;;5.57;4.10;;;;;;;;;;5084082;28;20088;-63
2022/08/14 00:33:53;;;;;;;6.57;4.10;;;;;;;;;;5100677;28;20047;-63
2022/08/14 00:36:21;;;;;;;10.40;5.20;;;;;;;;;;5100665;28;20506;-63
2022/08/14 00:38:50;;;;;;;11.65;4.75;;;;;;;;;;5082114;28;20131;-63
2022/08/14 00:41:17;;;;;;;8.48;4.97;;;;;;;;;;5105131;28;20113;-63
2022/08/14 00:43:45;;;;;;;10.63;4.82;;;;;;;;;;5096447;28;20052;-63
2022/08/14 00:46:13;;;;;;;5.63;4.63;;;;;;;;;;5101363;28;20179;-63
2022/08/14 00:48:40;;;;;;;13.00;5.22;;;;;;;;;;5082505;28;20055;-63
2022/08/14 00:51:09;;;;;;;11.70;4.85;;;;;;;;;;5104200;28;20593;-63
2022/08/14 00:53:38;;;;;;;11.63;5.30;;;;;;;;;;5082867;28;20040;-63
2022/08/14 00:56:08;;;;;;;15.73;4.75;;;;;;;;;;5102762;28;20083;-63
2022/08/14 00:58:35;;;;;;;7.35;4.68;;;;;;;;;;5101629;28;20051;-63
2022/08/14 01:01:05;;;;;;;7.72;4.95;;;;;;;;;;5104108;28;20066;-63
2022/08/14 01:03:38;;;;;;;9.80;4.80;;;;;;;;;;5094865;28;20059;-63
2022/08/14 01:06:07;;;;;;;10.20;5.32;;;;;;;;;;5096468;28;20054;-63
2022/08/14 01:08:35;;;;;;;7.95;5.53;;;;;;;;;;5101383;28;20752;-63
2022/08/14 01:11:02;;;;;;;7.43;4.90;;;;;;;;;;5097664;28;20095;-63
2022/08/14 01:13:32;;;;;;;8.05;5.13;;;;;;;;;;5100587;28;20055;-63
2022/08/14 01:16:00;;;;;;;9.15;5.07;;;;;;;;;;5100293;28;20436;-64
2022/08/14 01:21:15;;;;;;;10.55;5.30;;;;;;;;;;5073180;28;20054;-63
2022/08/14 01:23:45;;;;;;;10.45;5.60;;;;;;;;;;5101957;28;20133;-63
2022/08/14 01:26:13;;;;;;;10.07;5.05;;;;;;;;;;5103463;28;20055;-63
2022/08/14 01:28:40;;;;;;;8.38;5.10;;;;;;;;;;5099755;28;20040;-64
2022/08/14 01:31:11;;;;;;;7.18;5.43;;;;;;;;;;5102532;28;20078;-63
2022/08/14 01:33:39;;;;;;;7.95;5.35;;;;;;;;;;5093544;28;20047;-63
2022/08/14 01:36:08;;;;;;;7.43;5.15;;;;;;;;;;5088413;28;20040;-63
2022/08/14 01:38:36;;;;;;;7.57;5.05;;;;;;;;;;5095381;28;20382;-63
2022/08/14 01:41:06;;;;;;;12.52;6.07;;;;;;;;;;5094594;28;20063;-63
2022/08/14 01:43:38;;;;;;;9.70;5.93;;;;;;;;;;5102519;28;20082;-63
2022/08/14 01:46:10;;;;;;;9.38;5.28;;;;;;;;;;5100295;28;20060;-63
2022/08/14 01:48:37;;;;;;;12.45;5.80;;;;;;;;;;5084480;28;20054;-63
2022/08/14 01:51:05;;;;;;;7.30;5.65;;;;;;;;;;5100816;28;20085;-63
2022/08/14 01:53:32;;;;;;;10.45;5.93;;;;;;;;;;5098668;28;20766;-63
2022/08/14 01:56:03;;;;;;;8.25;6.05;;;;;;;;;;5098752;28;20047;-64
2022/08/14 01:58:32;;;;;;;11.30;5.82;;;;;;;;;;5103240;28;20043;-63
2022/08/14 02:00:59;;;;;;;11.48;5.95;;;;;;;;;;5102393;28;20050;-63
2022/08/14 02:03:29;;;;;;;6.35;5.47;;;;;;;;;;5103814;28;20044;-63
2022/08/14 02:05:58;;;;;;;15.85;6.50;;;;;;;;;;5108800;28;20058;-63
2022/08/14 02:08:29;;;;;;;7.13;5.60;;;;;;;;;;5085967;28;20131;-63
2022/08/14 02:13:39;;;;;;;7.57;5.88;;;;;;;;;;5105795;28;20044;-63
2022/08/14 02:16:08;;;;;;;14.35;6.65;;;;;;;;;;5104289;28;20228;-63
2022/08/14 02:18:35;;;;;;;7.88;6.20;;;;;;;;;;5105321;28;20056;-63
2022/08/14 02:21:03;;;;;;;11.45;6.50;;;;;;;;;;5108882;28;20056;-63
2022/08/14 02:23:31;;;;;;;11.40;6.85;;;;;;;;;;5099403;28;20039;-63
2022/08/14 02:26:00;;;;;;;7.65;6.70;;;;;;;;;;5096139;28;20048;-63
2022/08/14 02:28:30;;;;;;;7.68;5.97;;;;;;;;;;5105816;28;20048;-63
2022/08/14 02:31:00;;;;;;;8.55;6.63;;;;;;;;;;5107704;28;20494;-63
2022/08/14 02:33:27;;;;;;;11.57;6.60;;;;;;;;;;5107710;28;20717;-63
2022/08/14 02:35:55;;;;;;;8.88;6.55;;;;;;;;;;5106297;28;20051;-63
2022/08/14 02:38:22;;;;;;;11.25;6.22;;;;;;;;;;5088773;28;20128;-63
2022/08/14 02:40:49;;;;;;;9.88;6.60;;;;;;;;;;5104440;28;20039;-63
2022/08/14 02:43:20;;;;;;;11.10;7.00;;;;;;;;;;5104951;28;20574;-63
2022/08/14 02:45:47;;;;;;;7.97;7.15;;;;;;;;;;5108769;28;20048;-63
2022/08/14 02:48:16;;;;;;;10.00;7.30;;;;;;;;;;5088663;28;20108;-63
2022/08/14 02:50:43;;;;;;;10.75;7.30;;;;;;;;;;5103122;28;20040;-63
2022/08/14 02:53:11;;;;;;;9.55;6.55;;;;;;;;;;5107989;28;20062;-63
2022/08/14 02:55:39;;;;;;;9.63;7.53;;;;;;;;;;5106396;28;20771;-63
2022/08/14 02:58:07;;;;;;;9.57;7.70;;;;;;;;;;5098961;28;20062;-63
2022/08/14 03:00:35;;;;;;;10.32;7.65;;;;;;;;;;5105825;28;20368;-63
2022/08/14 03:03:03;;;;;;;9.75;7.60;;;;;;;;;;5104738;28;20074;-63
2022/08/14 03:05:32;;;;;;;13.48;7.18;;;;;;;;;;5103682;28;20050;-63
2022/08/14 03:08:05;;;;;;;10.18;7.65;;;;;;;;;;5102714;28;20043;-63
2022/08/14 03:10:32;;;;;;;;;;;;;;;;;;5101707;28;20105;-63
2022/08/14 03:13:03;;;;;;;11.48;7.38;;;;;;;;;;5107216;28;19919;-64
2022/08/14 03:15:31;;;;;;;12.02;7.90;;;;;;;;;;5106297;28;20050;-62
2022/08/14 03:17:59;;;;;;;9.32;7.47;;;;;;;;;;5103520;28;20051;-63
2022/08/14 03:20:27;;;;;;;10.73;7.75;;;;;;;;;;5086172;28;20071;-63
2022/08/14 03:23:00;;;;;;;9.70;7.95;;;;;;;;;;5106650;28;20054;-63
2022/08/14 03:25:29;;;;;;;12.00;7.32;;;;;;;;;;5105814;28;20052;-63
2022/08/14 03:27:57;;;;;;;13.15;7.95;;;;;;;;;;5104773;28;20039;-63
2022/08/14 03:30:24;;;;;;;10.25;7.57;;;;;;;;;;5086058;28;20695;-63
2022/08/14 03:32:52;;;;;;;13.75;8.07;;;;;;;;;;5103505;28;20048;-63
2022/08/14 03:35:20;;;;;;;12.93;8.13;;;;;;;;;;5107470;28;20062;-63
2022/08/14 03:37:47;;;;;;;9.68;8.10;;;;;;;;;;5106819;28;20786;-63
2022/08/14 03:40:16;;;;;;;9.25;8.23;;;;;;;;;;5106183;28;20054;-63
2022/08/14 03:42:43;;;;;;;13.05;8.02;;;;;;;;;;5086593;28;20063;-63
2022/08/14 03:45:10;;;;;;;12.57;8.15;;;;;;;;;;5104596;28;20048;-63
2022/08/14 03:47:40;;;;;;;8.18;7.32;;;;;;;;;;5082648;28;20055;-63
2022/08/14 03:50:09;;;;;;;10.07;7.68;;;;;;;;;;5104968;28;20079;-63
2022/08/14 03:52:37;;;;;;;9.27;7.53;;;;;;;;;;5105803;28;20471;-64
2022/08/14 03:55:05;;;;;;;9.10;7.88;;;;;;;;;;5106239;28;20043;-63
2022/08/14 03:57:34;;;;;;;10.95;8.02;;;;;;;;;;5106903;28;20050;-63
2022/08/14 04:00:05;;;;;;;11.85;8.10;;;;;;;;;;5105038;28;20066;-63
2022/08/14 04:02:33;;;;;;;11.23;7.88;;;;;;;;;;5103161;28;20059;-63
2022/08/14 04:05:00;;;;;;;10.25;8.40;;;;;;;;;;5105145;28;20071;-63
2022/08/14 04:07:27;;;;;;;12.05;8.93;;;;;;;;;;5103888;28;20136;-63
2022/08/14 04:09:54;;;;;;;9.60;8.70;;;;;;;;;;5086430;28;20070;-64
2022/08/14 04:12:22;;;;;;;11.45;8.55;;;;;;;;;;5098302;28;20432;-63
2022/08/14 04:14:51;;;;;;;10.05;8.95;;;;;;;;;;5087226;28;20043;-63
2022/08/14 04:17:18;;;;;;;9.85;8.82;;;;;;;;;;5105841;28;20052;-63
2022/08/14 04:19:46;;;;;;;8.75;7.90;;;;;;;;;;5104120;28;20040;-63
2022/08/14 04:22:13;;;;;;;9.98;8.32;;;;;;;;;;5103177;28;20051;-63
2022/08/14 04:24:43;;;;;;;11.07;8.95;;;;;;;;;;5101130;28;20047;-63
2022/08/14 04:27:12;;;;;;;11.50;10.23;;;;;;;;;;5105655;28;20097;-63
2022/08/14 04:29:40;;;;;;;15.07;9.88;;;;;;;;;;5101574;28;20042;-63
2022/08/14 04:32:09;;;;;;;11.23;9.20;;;;;;;;;;5106634;28;20498;-63
2022/08/14 04:34:38;;;;;;;12.75;9.40;;;;;;;;;;5105631;28;20059;-63
2022/08/14 04:45:22;;;;;;;10.48;9.30;;;;;;;;;;5106396;28;20047;-63
2022/08/14 04:50:35;;;;;;;11.60;8.85;;;;;;;;;;5100613;28;20059;-63
2022/08/14 04:53:03;;;;;;;15.20;9.40;;;;;;;;;;5103251;28;20521;-63
2022/08/14 04:55:30;;;;;;;14.40;9.63;;;;;;;;;;5102899;28;20509;-63
2022/08/14 04:57:58;;;;;;;13.80;9.13;;;;;;;;;;5086726;28;20112;-63
2022/08/14 05:00:26;;;;;;;15.77;9.50;;;;;;;;;;5098841;28;20039;-63
2022/08/14 05:02:55;;;;;;;10.30;9.02;;;;;;;;;;5101285;28;20054;-63
2022/08/14 05:05:23;;;;;;;14.10;9.18;;;;;;;;;;5098779;28;20127;-63
2022/08/14 05:07:51;;;;;;;11.05;9.75;;;;;;;;;;5100678;28;20082;-63
2022/08/14 05:10:22;;;;;;;11.93;9.30;;;;;;;;;;5100232;28;20395;-63
2022/08/14 05:12:50;;;;;;;10.55;9.27;;;;;;;;;;5103084;28;20140;-63
2022/08/14 05:15:20;;;;;;;12.25;8.55;;;;;;;;;;5081464;28;20059;-63
2022/08/14 05:17:47;;;;;;;12.02;9.15;;;;;;;;;;5103214;28;20469;-63
2022/08/14 05:20:16;;;;;;;12.88;9.02;;;;;;;;;;5103551;28;20138;-63
2022/08/14 05:22:44;;;;;;;11.48;9.02;;;;;;;;;;5103496;28;20055;-63
2022/08/14 05:25:11;;;;;;;14.82;9.10;;;;;;;;;;5104152;28;20051;-63
2022/08/14 05:27:38;;;;;;;10.93;9.10;;;;;;;;;;5077652;28;20047;-63
2022/08/14 05:30:06;;;;;;;18.17;8.40;;;;;;;;;;5082157;28;20067;-64
2022/08/14 05:32:33;;;;;;;13.18;8.52;;;;;;;;;;5104078;28;20096;-63
2022/08/14 05:35:01;;;;;;;12.32;8.98;;;;;;;;;;5105693;28;20096;-63
2022/08/14 05:37:30;;;;;;;12.93;9.60;;;;;;;;;;5085475;28;20052;-63
2022/08/14 05:39:58;;;;;;;12.38;8.88;;;;;;;;;;5107778;28;20147;-63
2022/08/14 05:42:26;;;;;;;14.05;8.38;;;;;;;;;;5106480;28;20083;-63
2022/08/14 05:44:53;;;;;;;9.60;8.60;;;;;;;;;;5088188;28;20048;-63
2022/08/14 05:47:20;;;;;;;9.95;8.18;;;;;;;;;;5108176;28;20052;-63
2022/08/14 05:49:47;;;;;;;12.68;8.57;;;;;;;;;;5105576;28;20052;-63
2022/08/14 05:52:14;;;;;;;10.90;8.10;;;;;;;;;;5103986;28;20047;-63
2022/08/14 05:54:43;;;;;;;14.32;8.38;;;;;;;;;;5103746;28;20040;-63
2022/08/14 05:57:10;;;;;;;10.98;8.32;;;;;;;;;;5105977;28;20550;-63
2022/08/14 05:59:38;;;;;;;10.45;8.43;;;;;;;;;;5099633;28;20112;-64
2022/08/14 06:02:05;;;;;;;10.45;7.68;;;;;;;;;;5103218;28;20494;-63
2022/08/14 06:04:32;;;;;;;11.10;7.93;;;;;;;;;;5102548;28;20051;-63
2022/08/14 06:06:59;;;;;;;9.45;8.02;;;;;;;;;;5107850;28;20047;-63
2022/08/14 06:09:26;;;;;;;13.73;7.65;;;;;;;;;;5103657;28;20650;-63
2022/08/14 06:11:55;;;;;;;11.82;8.32;;;;;;;;;;5103555;28;20112;-63
2022/08/14 06:14:23;;;;;;;10.00;7.97;;;;;;;;;;5106291;28;20109;-63
2022/08/14 06:16:50;;;;;;;12.90;8.00;;;;;;;;;;5101907;28;20490;-63
2022/08/14 06:19:17;;;;;;;8.77;7.55;;;;;;;;;;5104215;28;20052;-63
2022/08/14 06:21:45;;;;;;;10.10;7.55;;;;;;;;;;5108226;28;20052;-63
2022/08/14 06:24:12;;;;;;;10.95;7.88;;;;;;;;;;5098559;28;20054;-64
2022/08/14 06:26:39;;;;;;;8.95;7.70;;;;;;;;;;5096191;28;20104;-63
2022/08/14 06:29:09;;;;;;;12.23;7.13;;;;;;;;;;5103239;28;20499;-63
2022/08/14 06:31:36;;;;;;;14.60;7.95;;;;;;;;;;5102951;28;20037;-63
2022/08/14 06:34:03;;;;;;;15.50;7.78;;;;;;;;;;5102126;28;20510;-63
2022/08/14 06:36:30;;;;;;;12.82;7.55;;;;;;;;;;5099155;28;20048;-63
2022/08/14 06:38:57;;;;;;;9.55;7.20;;;;;;;;;;5097148;28;20503;-63
2022/08/14 06:41:25;;;;;;;17.92;7.68;;;;;;;;;;5105775;28;20047;-63
2022/08/14 06:43:52;;;;;;;12.50;7.50;;;;;;;;;;5104370;28;20086;-63
2022/08/14 06:46:21;;;;;;;7.70;6.65;;;;;;;;;;5108138;28;20514;-63
2022/08/14 06:48:49;;;;;;;8.93;6.60;;;;;;;;;;5102269;28;20141;-64
2022/08/14 06:51:17;;;;;;;11.13;6.75;;;;;;;;;;5107670;28;20052;-63
2022/08/14 06:53:44;;;;;;;11.85;6.45;;;;;;;;;;5104344;28;20047;-63
2022/08/14 06:56:11;;;;;;;10.90;6.57;;;;;;;;;;5107679;28;20402;-63
2022/08/14 06:58:38;;;;;;;11.75;7.03;;;;;;;;;;5107290;28;20074;-63
2022/08/14 07:06:33;;;;;;;16.25;6.63;;;;;;;;;;5070130;28;20169;-63
2022/08/14 07:09:00;;;;;;;7.50;6.38;;;;;;;;;;5087700;28;20097;-64
2022/08/14 07:11:28;;;;;;;9.88;6.80;;;;;;;;;;5098226;27;21292;-63
2022/08/14 07:13:55;;;;;;;7.88;5.90;;;;;;;;;;5106359;28;20059;-63
2022/08/14 07:16:22;;;;;;;11.57;6.53;;;;;;;;;;5104171;28;20112;-63
2022/08/14 07:18:50;;;;;;;9.13;6.07;;;;;;;;;;5101497;28;20452;-63
2022/08/14 07:21:19;;;;;;;10.20;6.55;;;;;;;;;;5101790;28;20054;-63
2022/08/14 07:23:46;;;;;;;11.80;6.10;;;;;;;;;;5101427;28;20047;-63
2022/08/14 07:26:13;;;;;;;8.55;5.97;;;;;;;;;;5103165;28;20055;-64
2022/08/14 07:28:41;;;;;;;6.88;5.75;;;;;;;;;;5082334;28;20048;-64
2022/08/14 07:31:10;;;;;;;6.50;5.63;;;;;;;;;;5101124;28;20081;-63
2022/08/14 07:33:39;;;;;;;6.82;5.57;;;;;;;;;;5104381;28;20047;-63
2022/08/14 07:36:08;;;;;;;12.43;5.45;;;;;;;;;;5086171;28;20118;-63
2022/08/14 07:38:39;;;;;;;9.23;5.68;;;;;;;;;;5107461;28;20493;-64
2022/08/14 07:41:08;;;;;;;9.43;5.22;;;;;;;;;;5106107;28;20051;-63
2022/08/14 07:43:35;;;;;;;7.75;5.65;;;;;;;;;;5106813;28;20051;-64
2022/08/14 07:46:02;;;;;;;8.52;5.63;;;;;;;;;;5100748;28;20793;-64
2022/08/14 07:48:30;;;;;;;6.03;5.30;;;;;;;;;;5105985;28;20108;-64
2022/08/14 07:50:57;;;;;;;6.95;5.63;;;;;;;;;;5099209;28;20439;-64
2022/08/14 07:53:24;;;;;;;8.20;5.78;;;;;;;;;;5105811;28;20051;-64
2022/08/14 07:55:53;;;;;;;11.20;5.78;;;;;;;;;;5085692;28;20047;-63
2022/08/14 07:58:21;;;;;;;7.03;5.35;;;;;;;;;;5105431;28;20506;-64
2022/08/14 08:00:49;;;;;;;8.30;5.43;;;;;;;;;;5105446;28;20051;-64
2022/08/14 08:03:17;;;;;;;6.72;5.43;;;;;;;;;;5103808;28;20457;-64
2022/08/14 08:05:46;;;;;;;8.82;5.70;;;;;;;;;;5101964;28;20039;-64
2022/08/14 08:08:13;;;;;;;7.10;4.88;;;;;;;;;;5105755;28;20048;-63
2022/08/14 08:10:41;;;;;;;7.38;5.72;;;;;;;;;;5101763;28;20062;-64
2022/08/14 08:13:11;;;;;;;7.20;5.45;;;;;;;;;;5101868;28;20048;-64
2022/08/14 08:15:39;;;;;;;10.32;5.20;;;;;;;;;;5082979;28;20111;-64
2022/08/14 08:18:08;;;;;;;8.77;5.15;;;;;;;;;;5099071;28;20132;-63
2022/08/14 08:20:36;;;;;;;9.10;5.45;;;;;;;;;;5100379;28;20482;-64
2022/08/14 08:23:04;;;;;;;8.10;5.43;;;;;;;;;;5102180;28;20101;-63
2022/08/14 08:25:33;;;;;;;6.68;5.32;;;;;;;;;;5099135;28;20051;-64
2022/08/14 08:28:01;;;;;;;9.30;5.93;;;;;;;;;;5097304;28;20429;-63
2022/08/14 08:30:32;;;;;;;8.13;5.07;;;;;;;;;;5099979;28;20079;-64
2022/08/14 08:33:00;;;;;;;8.45;5.60;;;;;;;;;;5105154;28;20047;-63
2022/08/14 08:35:27;;;;;;;5.93;5.32;;;;;;;;;;5106032;28;20101;-63
2022/08/14 08:38:01;;;;;;;8.18;5.25;;;;;;;;;;5102111;28;20537;-63
2022/08/14 08:40:30;;;;;;;12.60;5.20;;;;;;;;;;5085962;28;20159;-64
2022/08/14 08:42:57;;;;;;;7.13;4.88;;;;;;;;;;5099367;28;20135;-64
2022/08/14 08:45:24;;;;;;;7.82;5.18;;;;;;;;;;5098471;28;20056;-63
2022/08/14 08:47:53;;;;;;;9.10;4.72;;;;;;;;;;5087378;28;20410;-64
2022/08/14 08:50:21;;;;;;;7.15;4.78;;;;;;;;;;5103229;28;20051;-63
2022/08/14 08:52:49;;;;;;;8.70;5.05;;;;;;;;;;5103953;28;20051;-64
2022/08/14 08:55:17;;;;;;;6.47;4.82;;;;;;;;;;5101443;28;20054;-64
2022/08/14 08:57:45;;;;;;;10.13;5.00;;;;;;;;;;5101226;28;20117;-64
2022/08/14 09:00:17;;;;;;;8.40;4.90;;;;;;;;;;5104829;28;20402;-64
2022/08/14 09:02:56;;;;;;;6.72;4.40;;;;;;;;;;5105908;28;20039;-64
2022/08/14 09:05:23;;;;;;;10.25;4.80;;;;;;;;;;5104727;28;20071;-64
2022/08/14 09:07:51;;;;;;;6.00;4.55;;;;;;;;;;5104833;28;20122;-64
2022/08/14 09:10:18;;;;;;;6.20;4.63;;;;;;;;;;5108164;28;20147;-64
2022/08/14 09:12:46;;;;;;;7.80;4.78;;;;;;;;;;5080095;28;20542;-64
2022/08/14 09:15:14;;;;;;;5.85;4.30;;;;;;;;;;5103263;28;20051;-64
2022/08/14 09:17:42;;;;;;;9.25;4.40;;;;;;;;;;5080556;28;20043;-64
2022/08/14 09:20:11;;;;;;;10.82;4.50;;;;;;;;;;5106074;28;20522;-64
2022/08/14 09:22:39;;;;;;;7.30;4.63;;;;;;;;;;5083287;28;20119;-64
2022/08/14 09:25:07;;;;;;;6.68;4.57;;;;;;;;;;5099889;28;20059;-64
2022/08/14 09:27:34;;;;;;;7.35;4.57;;;;;;;;;;5079620;28;20094;-64
2022/08/14 09:30:01;;;;;;;9.23;4.82;;;;;;;;;;5103807;28;20081;-64
2022/08/14 09:32:33;;;;;;;10.05;4.85;;;;;;;;;;5076712;28;20047;-64
2022/08/14 09:35:04;;;;;;;6.43;4.78;;;;;;;;;;5099256;28;20497;-64
2022/08/14 09:37:35;;;;;;;7.00;4.38;;;;;;;;;;5081800;28;20051;-64
2022/08/14 09:40:07;;;;;;;7.63;4.13;;;;;;;;;;5101023;28;20048;-64
2022/08/14 09:42:36;;;;;;;7.60;4.20;;;;;;;;;;5100199;28;20598;-64
2022/08/14 09:45:10;;;;;;;5.43;4.43;;;;;;;;;;5102412;28;20693;-64
2022/08/14 09:47:41;;;;;;;6.18;4.35;;;;;;;;;;5098969;28;20123;-64
2022/08/14 09:50:16;;;;;;;8.02;4.50;;;;;;;;;;5100834;28;20514;-64
2022/08/14 09:52:50;;;;;;;4.82;4.20;;;;;;;;;;5100025;28;20047;-64
2022/08/14 09:55:18;;;;;;;4.65;4.18;;;;;;;;;;5098505;28;20672;-64
2022/08/14 09:57:45;;;;;;;4.43;4.03;;;;;;;;;;5103322;28;20086;-64
2022/08/14 10:00:14;;;;;;;7.28;4.40;;;;;;;;;;5084105;28;20044;-64
2022/08/14 10:02:55;;;;;;;7.05;4.00;;;;;;;;;;5081692;28;20044;-64
2022/08/14 10:05:29;;;;;;;7.63;4.07;;;;;;;;;;5101496;28;20039;-64
2022/08/14 10:07:59;;;;;;;8.45;4.00;;;;;;;;;;5076998;28;20055;-64
2022/08/14 10:10:35;;;;;;;7.00;4.45;;;;;;;;;;5094720;28;20051;-64
2022/08/14 10:13:02;;;;;;;8.18;4.40;;;;;;;;;;5098088;28;20600;-64
2022/08/14 10:15:31;;;;;;;8.30;4.43;;;;;;;;;;5099386;28;20047;-64
2022/08/14 10:18:08;;;;;;;6.53;4.40;;;;;;;;;;5095850;28;20059;-64
2022/08/14 10:20:40;;;;;;;5.82;4.20;;;;;;;;;;5097393;28;20054;-64
2022/08/14 10:23:12;;;;;;;6.32;4.20;;;;;;;;;;5103832;28;20118;-64
2022/08/14 10:25:39;;;;;;;;;;;;;;;;;;5104503;28;20052;-64
2022/08/14 10:28:07;;;;;;;8.38;4.15;;;;;;;;;;5102290;28;19981;-64
2022/08/14 10:30:36;;;;;;;6.97;4.07;;;;;;;;;;5099612;28;20136;-64
2022/08/14 10:33:04;;;;;;;8.20;4.20;;;;;;;;;;5105608;28;20062;-64
2022/08/14 10:35:40;;;;;;;8.98;4.20;;;;;;;;;;5104870;28;20048;-64
2022/08/14 10:38:07;;;;;;;4.97;4.10;;;;;;;;;;5106297;28;20122;-64
2022/08/14 10:40:36;;;;;;;5.47;3.80;;;;;;;;;;5102871;28;20056;-64
2022/08/14 10:43:04;;;;;;;6.22;4.20;;;;;;;;;;5106196;28;20122;-64
2022/08/14 10:45:32;;;;;;;4.80;4.00;;;;;;;;;;5105310;28;20058;-64
2022/08/14 10:48:00;;;;;;;5.00;4.22;;;;;;;;;;5103367;28;20051;-64
2022/08/14 10:50:31;;;;;;;7.90;4.05;;;;;;;;;;5101563;28;20399;-64
2022/08/14 10:52:59;;;;;;;6.18;3.97;;;;;;;;;;5095827;28;20044;-64
2022/08/14 10:55:32;;;;;;;6.65;4.20;;;;;;;;;;5101074;28;20075;-64
2022/08/14 10:58:01;;;;;;;5.90;3.92;;;;;;;;;;5105409;28;20062;-64
2022/08/14 11:00:29;;;;;;;6.30;3.70;;;;;;;;;;5103801;28;20054;-64
2022/08/14 11:03:00;;;;;;;5.35;3.90;;;;;;;;;;5101039;28;20043;-64
2022/08/14 11:05:27;;;;;;;6.80;3.90;;;;;;;;;;5104432;28;20058;-64
2022/08/14 11:07:55;;;;;;;5.93;3.72;;;;;;;;;;5104871;28;20054;-64
2022/08/14 11:10:25;;;;;;;7.35;3.63;;;;;;;;;;5082950;28;20074;-64
2022/08/14 11:12:55;;;;;;;4.68;3.33;;;;;;;;;;5102458;28;20130;-64
2022/08/14 11:15:25;;;;;;;6.93;4.13;;;;;;;;;;5102975;28;20147;-64
2022/08/14 11:17:52;;;;;;;8.80;3.88;;;;;;;;;;5106553;28;20486;-64
2022/08/14 11:20:21;;;;;;;4.85;3.67;;;;;;;;;;5102384;28;20580;-64
2022/08/14 11:22:53;;;;;;;4.78;3.25;;;;;;;;;;5104358;28;20052;-64
2022/08/14 11:25:22;;;;;;;5.50;3.30;;;;;;;;;;5107411;28;20752;-64
2022/08/14 11:27:50;;;;;;;5.53;3.10;;;;;;;;;;5101594;28;20058;-64
2022/08/14 11:30:19;;;;;;;4.53;3.42;;;;;;;;;;5104180;28;20503;-64
2022/08/14 11:32:48;;;;;;;6.20;3.88;;;;;;;;;;5104050;28;20471;-64
2022/08/14 11:35:18;;;;;;;3.80;3.50;;;;;;;;;;5105404;28;20547;-65
2022/08/14 11:37:52;;;;;;;5.85;3.75;;;;;;;;;;5104999;28;20096;-65
2022/08/14 11:40:19;;;;;;;7.70;3.28;;;;;;;;;;5106950;28;20063;-65
2022/08/14 11:42:47;;;;;;;6.07;3.70;;;;;;;;;;5104594;28;20055;-65
2022/08/14 11:45:15;;;;;;;10.05;3.47;;;;;;;;;;5100134;28;20075;-65
2022/08/14 11:47:42;;;;;;;6.95;3.80;;;;;;;;;;5102918;28;20055;-65
2022/08/14 11:50:17;;;;;;;5.80;3.40;;;;;;;;;;5100980;28;20085;-65
2022/08/14 11:52:45;;;;;;;5.90;3.50;;;;;;;;;;5105231;28;20402;-65
2022/08/14 11:55:13;;;;;;;6.05;4.00;;;;;;;;;;5102469;28;20052;-65
2022/08/14 11:57:40;;;;;;;5.05;3.60;;;;;;;;;;5105779;28;20444;-65
2022/08/14 12:00:09;;;;;;;4.85;3.38;;;;;;;;;;5097811;28;20055;-65
2022/08/14 12:02:36;;;;;;;5.07;3.72;;;;;;;;;;5103259;28;20048;-65
2022/08/14 12:05:04;;;;;;;4.53;3.40;;;;;;;;;;5082371;28;20525;-65
2022/08/14 12:07:32;;;;;;;3.75;3.42;;;;;;;;;;5106106;28;20051;-65
2022/08/14 12:10:00;;;;;;;3.83;3.53;;;;;;;;;;5105206;27;20055;-65
2022/08/14 12:12:31;;;;;;;5.35;3.42;;;;;;;;;;5105568;28;20040;-65
2022/08/14 12:14:59;;;;;;;3.75;3.45;;;;;;;;;;5103531;28;20058;-65
2022/08/14 12:17:28;;;;;;;4.75;3.47;;;;;;;;;;5105287;28;20181;-65
2022/08/14 12:19:57;;;;;;;5.65;3.58;;;;;;;;;;5102437;28;20054;-65
2022/08/14 12:22:36;;;;;;;4.88;3.40;;;;;;;;;;5106188;28;20054;-65
2022/08/14 12:25:04;;;;;;;6.15;3.75;;;;;;;;;;5104357;28;20055;-65
2022/08/14 12:27:36;;;;;;;4.85;3.72;;;;;;;;;;5104603;28;20051;-65
2022/08/14 12:30:03;;;;;;;4.32;3.63;;;;;;;;;;5103897;28;20051;-66
2022/08/14 12:32:39;;;;;;;4.53;3.88;;;;;;;;;;5103653;28;20486;-65
2022/08/14 12:35:08;;;;;;;7.25;3.53;;;;;;;;;;5105410;28;20052;-65
2022/08/14 12:37:37;;;;;;;4.75;3.80;;;;;;;;;;5102618;28;20763;-65
2022/08/14 12:40:09;;;;;;;4.22;3.83;;;;;;;;;;5106136;28;20059;-65
2022/08/14 12:42:37;;;;;;;4.90;3.85;;;;;;;;;;5101427;28;20085;-65
2022/08/14 12:45:05;;;;;;;4.10;3.67;;;;;;;;;;5101855;28;20409;-66
2022/08/14 12:47:32;;;;;;;4.68;4.00;;;;;;;;;;5103115;28;20043;-65
2022/08/14 12:49:59;;;;;;;4.05;3.65;;;;;;;;;;5106158;28;20067;-65
2022/08/14 12:52:30;;;;;;;7.25;3.83;;;;;;;;;;5101801;28;20436;-66
2022/08/14 12:55:00;;;;;;;8.05;3.90;;;;;;;;;;5102031;28;20665;-65
2022/08/14 12:57:38;;;;;;;6.03;3.90;;;;;;;;;;5102885;28;20051;-66
2022/08/14 13:00:07;;;;;;;4.28;3.58;;;;;;;;;;5100193;28;20511;-65
2022/08/14 13:02:37;;;;;;;5.00;3.35;;;;;;;;;;5102306;28;20424;-66
2022/08/14 13:05:05;;;;;;;4.20;3.80;;;;;;;;;;5101573;28;20044;-65
2022/08/14 13:07:32;;;;;;;4.45;3.65;;;;;;;;;;5105719;28;20050;-65
2022/08/14 13:10:01;;;;;;;5.50;3.78;;;;;;;;;;5105081;28;20069;-65
2022/08/14 13:12:29;;;;;;;4.20;3.80;;;;;;;;;;5102891;28;20397;-65
2022/08/14 13:14:59;;;;;;;4.88;3.50;;;;;;;;;;5102554;28;20044;-65
2022/08/14 13:17:26;;;;;;;4.00;3.70;;;;;;;;;;5103170;28;20052;-65
2022/08/14 13:19:55;;;;;;;4.70;3.72;;;;;;;;;;5104918;28;20398;-65
2022/08/14 13:22:25;;;;;;;6.10;3.65;;;;;;;;;;5101329;28;20623;-65
2022/08/14 13:24:52;;;;;;;5.20;3.45;;;;;;;;;;5100254;28;20105;-65
2022/08/14 13:27:23;;;;;;;4.00;3.35;;;;;;;;;;5101204;28;20055;-65
2022/08/14 13:29:51;;;;;;;5.72;3.60;;;;;;;;;;5103326;28;20052;-65
2022/08/14 13:32:19;;;;;;;5.68;3.33;;;;;;;;;;5102372;28;20707;-65
2022/08/14 13:34:48;;;;;;;4.72;3.67;;;;;;;;;;5104341;28;20047;-65
2022/08/14 13:37:16;;;;;;;6.65;3.40;;;;;;;;;;5103178;28;20059;-65
2022/08/14 13:39:47;;;;;;;5.55;3.60;;;;;;;;;;5102671;28;20051;-65
2022/08/14 13:42:15;;;;;;;3.72;3.38;;;;;;;;;;5084389;28;20048;-65
2022/08/14 13:44:45;;;;;;;4.50;3.17;;;;;;;;;;5087029;28;20055;-65
2022/08/14 13:47:13;;;;;;;6.53;3.28;;;;;;;;;;5103702;28;20522;-65
2022/08/14 13:49:40;;;;;;;3.80;3.20;;;;;;;;;;5099154;28;20582;-65
2022/08/14 13:52:11;;;;;;;5.10;3.58;;;;;;;;;;5101324;28;20054;-65
2022/08/14 13:54:39;;;;;;;4.57;3.53;;;;;;;;;;5102987;28;20132;-65
2022/08/14 13:57:09;;;;;;;4.57;3.22;;;;;;;;;;5100901;28;20060;-65
2022/08/14 13:59:37;;;;;;;3.55;3.08;;;;;;;;;;5107969;28;20047;-65
2022/08/14 14:02:06;;;;;;;8.18;3.70;;;;;;;;;;5107886;28;20054;-65
2022/08/14 14:04:39;;;;;;;4.75;3.40;;;;;;;;;;5106635;28;20039;-65
2022/08/14 14:07:10;;;;;;;3.78;3.15;;;;;;;;;;5084412;28;20126;-65
2022/08/14 14:09:40;;;;;;;5.43;3.33;;;;;;;;;;5101068;27;20056;-65
2022/08/14 14:12:07;;;;;;;3.70;3.40;;;;;;;;;;5106513;28;20055;-65
2022/08/14 14:14:37;;;;;;;4.13;3.38;;;;;;;;;;5108254;28;20142;-65
2022/08/14 14:17:05;;;;;;;6.68;3.50;;;;;;;;;;5108663;28;20071;-66
2022/08/14 14:19:33;;;;;;;5.90;3.72;;;;;;;;;;5105837;28;20047;-65
2022/08/14 14:22:01;;;;;;;4.63;3.60;;;;;;;;;;5106155;28;20047;-65
2022/08/14 14:24:28;;;;;;;4.50;3.63;;;;;;;;;;5107220;28;20108;-65
2022/08/14 14:26:57;;;;;;;7.38;3.47;;;;;;;;;;5106580;28;20052;-65
2022/08/14 14:29:26;;;;;;;7.03;3.60;;;;;;;;;;5103657;28;20121;-65
2022/08/14 14:31:53;;;;;;;5.30;4.03;;;;;;;;;;5107945;28;20036;-66
2022/08/14 14:34:24;;;;;;;10.15;3.72;;;;;;;;;;5095141;28;20052;-65
2022/08/14 14:36:51;;;;;;;4.55;3.70;;;;;;;;;;5100803;28;20070;-65
2022/08/14 14:39:21;;;;;;;3.80;3.40;;;;;;;;;;5101906;28;20055;-65
2022/08/14 14:41:51;;;;;;;4.47;3.70;;;;;;;;;;5093507;28;20119;-65
2022/08/14 14:44:21;;;;;;;3.55;3.25;;;;;;;;;;5080347;28;20055;-65
2022/08/14 14:46:49;;;;;;;4.25;3.65;;;;;;;;;;5104393;28;20128;-65
2022/08/14 14:49:17;;;;;;;5.18;3.90;;;;;;;;;;5100242;28;20051;-65
2022/08/14 14:51:46;;;;;;;6.32;4.05;;;;;;;;;;5102079;28;20512;-65
2022/08/14 14:54:13;;;;;;;4.45;3.80;;;;;;;;;;5102054;28;20693;-65
2022/08/14 14:56:41;;;;;;;4.65;3.80;;;;;;;;;;5099918;28;20052;-65
2022/08/14 14:59:09;;;;;;;4.65;3.60;;;;;;;;;;5106036;28;20531;-65
2022/08/14 15:01:36;;;;;;;3.97;3.67;;;;;;;;;;5098882;28;20701;-65
2022/08/14 15:04:06;;;;;;;5.03;3.47;;;;;;;;;;5102124;28;20066;-65
2022/08/14 15:06:33;;;;;;;5.63;3.67;;;;;;;;;;5104115;28;20052;-65
2022/08/14 15:09:02;;;;;;;5.38;3.67;;;;;;;;;;5103017;28;20043;-65
2022/08/14 15:11:29;;;;;;;5.57;4.10;;;;;;;;;;5099411;28;20058;-65